Time;durP1;ratioP1;P1;durP2;ratioP2;P2;SDS_P1;SDS_P2;PMS_P1;PMS_P2;Temp;Humidity;BMP_temperature;BMP_pressure;BME280_temperature;BME280_humidity;BME280_pressure;Samples;Min_cycle;Max_cycle;Signal;HPM_P1;HPM_P2
2022/09/14 00:00:29;;;;;;;4.55;2.60;;;19.60;99.90;;;;;;4993216;28;20262;-90
2022/09/14 00:02:55;;;;;;;3.50;2.20;;;19.60;99.90;;;;;;5002446;28;20183;-89
2022/09/14 00:05:21;;;;;;;5.35;2.40;;;19.70;99.90;;;;;;4996004;28;20199;-89
2022/09/14 00:07:47;;;;;;;2.50;2.30;;;19.60;99.90;;;;;;4995103;28;20207;-89
2022/09/14 00:10:13;;;;;;;3.10;2.25;;;19.60;99.90;;;;;;4996693;28;20167;-90
2022/09/14 00:12:39;;;;;;;2.58;2.20;;;19.60;99.90;;;;;;5003416;28;20186;-89
2022/09/14 00:15:06;;;;;;;2.88;2.13;;;19.50;99.90;;;;;;4998981;28;20200;-89
2022/09/14 00:17:32;;;;;;;2.90;2.50;;;19.50;99.90;;;;;;4996959;28;20182;-89
2022/09/14 00:20:00;;;;;;;4.68;2.28;;;19.50;99.90;;;;;;4998558;28;20178;-89
2022/09/14 00:22:26;;;;;;;3.55;2.60;;;19.50;99.90;;;;;;4980121;28;20262;-89
2022/09/14 00:24:52;;;;;;;2.90;2.10;;;19.40;99.90;;;;;;5003068;28;20290;-90
2022/09/14 00:27:18;;;;;;;3.10;2.38;;;19.50;99.90;;;;;;4998965;28;20183;-89
2022/09/14 00:29:44;;;;;;;3.72;2.40;;;19.40;99.90;;;;;;5014321;28;20185;-89
2022/09/14 00:32:10;;;;;;;6.90;2.55;;;19.40;99.90;;;;;;4999551;28;20229;-90
2022/09/14 00:34:36;;;;;;;2.10;1.95;;;19.50;99.90;;;;;;4991902;28;20223;-89
2022/09/14 00:37:02;;;;;;;4.75;2.40;;;19.50;99.90;;;;;;4996850;28;20190;-89
2022/09/14 00:39:28;;;;;;;3.00;2.33;;;19.50;99.90;;;;;;4998292;28;20253;-89
2022/09/14 00:41:54;;;;;;;5.05;2.53;;;19.50;99.90;;;;;;4997448;28;20187;-89
2022/09/14 00:44:23;;;;;;;4.88;2.33;;;19.40;99.90;;;;;;4995024;28;20207;-89
2022/09/14 00:46:52;;;;;;;4.80;2.50;;;19.40;99.90;;;;;;5001284;28;20190;-89
2022/09/14 00:49:37;;;;;;;4.65;2.22;;;19.40;99.90;;;;;;4981475;28;20203;-89
2022/09/14 00:52:41;;;;;;;6.10;3.53;;;19.40;99.90;;;;;;4978711;28;20199;-89
2022/09/14 00:55:13;;;;;;;4.00;2.75;;;19.40;99.90;;;;;;4943372;28;20239;-90
2022/09/14 00:57:45;;;;;;;3.45;2.30;;;19.40;99.90;;;;;;4987901;28;20199;-89
2022/09/14 01:00:13;;;;;;;4.93;2.47;;;19.40;99.90;;;;;;5010661;28;20677;-89
2022/09/14 01:02:40;;;;;;;4.53;2.58;;;19.40;99.90;;;;;;4978349;28;20179;-88
2022/09/14 01:05:07;;;;;;;2.95;2.50;;;19.40;99.90;;;;;;5009561;28;20209;-88
2022/09/14 01:07:48;;;;;;;5.47;2.47;;;19.40;99.90;;;;;;4998138;28;20203;-89
2022/09/14 01:10:35;;;;;;;3.97;2.50;;;19.40;99.90;;;;;;5010354;28;20171;-89
2022/09/14 01:13:07;;;;;;;6.32;2.60;;;19.30;99.90;;;;;;4997942;28;20182;-88
2022/09/14 01:15:48;;;;;;;2.83;2.40;;;19.20;99.90;;;;;;4982906;28;20569;-88
2022/09/14 01:18:22;;;;;;;3.47;2.28;;;19.20;99.90;;;;;;4979764;28;20213;-88
2022/09/14 01:21:15;;;;;;;4.00;2.55;;;19.10;99.90;;;;;;5008707;28;20175;-89
2022/09/14 01:24:01;;;;;;;3.17;2.28;;;19.20;99.90;;;;;;4987411;28;20191;-88
2022/09/14 01:27:08;;;;;;;2.78;2.30;;;19.20;99.90;;;;;;4988928;28;20182;-89
2022/09/14 01:29:44;;;;;;;7.50;2.70;;;19.20;99.90;;;;;;5011527;28;20189;-89
2022/09/14 01:32:15;;;;;;;3.17;2.88;;;19.10;99.90;;;;;;4994941;28;20276;-89
2022/09/14 01:35:03;;;;;;;2.92;2.50;;;18.90;99.90;;;;;;5003451;28;20199;-89
2022/09/14 01:37:51;;;;;;;5.75;2.53;;;18.90;99.90;;;;;;4993702;28;20183;-89
2022/09/14 01:40:35;;;;;;;2.92;2.30;;;18.90;99.90;;;;;;4977698;28;20667;-89
2022/09/14 01:43:23;;;;;;;3.17;2.50;;;18.90;99.90;;;;;;5009139;28;20182;-88
2022/09/14 01:45:58;;;;;;;4.03;2.78;;;18.90;99.90;;;;;;5005198;28;20210;-89
2022/09/14 01:48:52;;;;;;;3.53;2.60;;;18.80;99.90;;;;;;5005228;28;20208;-89
2022/09/14 01:51:30;;;;;;;3.08;2.40;;;18.70;99.90;;;;;;4976117;28;20199;-88
2022/09/14 01:54:21;;;;;;;3.08;2.25;;;18.70;99.90;;;;;;4996102;28;20171;-89
2022/09/14 01:56:52;;;;;;;3.95;2.45;;;18.70;99.90;;;;;;4999319;28;20184;-89
2022/09/14 01:59:33;;;;;;;5.10;2.78;;;18.80;99.90;;;;;;4998119;28;20182;-88
2022/09/14 02:02:15;;;;;;;2.70;2.38;;;18.80;99.90;;;;;;5008038;28;20185;-89
2022/09/14 02:04:56;;;;;;;3.00;2.38;;;18.80;99.90;;;;;;4990983;28;20218;-89
2022/09/14 02:07:23;;;;;;;4.18;2.53;;;18.90;99.90;;;;;;4978563;28;20179;-88
2022/09/14 02:09:51;;;;;;;2.83;2.63;;;19.00;99.90;;;;;;4991995;28;20266;-89
2022/09/14 02:12:17;;;;;;;5.63;3.05;;;19.00;99.90;;;;;;4993325;28;20175;-89
2022/09/14 02:14:45;;;;;;;3.20;2.55;;;19.00;99.90;;;;;;4994047;28;20231;-89
2022/09/14 02:17:12;;;;;;;4.68;2.90;;;19.00;99.90;;;;;;4995967;28;20187;-90
2022/09/14 02:19:47;;;;;;;2.65;2.45;;;19.00;99.90;;;;;;4978938;28;20183;-88
2022/09/14 02:22:14;;;;;;;3.97;2.85;;;19.10;99.90;;;;;;4982842;28;20265;-89
2022/09/14 02:24:40;;;;;;;2.88;2.58;;;19.10;99.90;;;;;;4994774;28;20190;-89
2022/09/14 02:27:06;;;;;;;3.22;2.35;;;19.20;99.90;;;;;;4983627;28;20179;-89
2022/09/14 02:29:33;;;;;;;3.85;2.65;;;19.20;99.90;;;;;;5004275;28;20207;-89
2022/09/14 02:32:11;;;;;;;6.38;2.70;;;19.20;99.90;;;;;;4985683;28;20199;-89
2022/09/14 02:35:03;;;;;;;5.43;2.55;;;19.20;99.90;;;;;;4996679;28;20226;-89
2022/09/14 02:37:31;;;;;;;3.63;2.50;;;19.20;99.90;;;;;;4989964;28;20189;-89
2022/09/14 02:40:34;;;;;;;5.30;2.33;;;19.20;99.90;;;;;;5000274;28;20182;-89
2022/09/14 02:43:25;;;;;;;3.25;2.95;;;19.20;99.90;;;;;;4981103;28;20655;-89
2022/09/14 02:46:03;;;;;;;4.00;2.80;;;19.10;99.90;;;;;;4980984;28;20773;-89
2022/09/14 02:48:41;;;;;;;4.50;2.83;;;19.10;99.90;;;;;;4993237;28;20285;-88
2022/09/14 02:51:14;;;;;;;4.75;3.00;;;19.10;99.90;;;;;;5000107;28;20206;-88
2022/09/14 02:53:58;;;;;;;3.25;2.95;;;19.00;99.90;;;;;;4998352;28;20171;-88
2022/09/14 02:56:25;;;;;;;2.72;2.53;;;19.00;99.90;;;;;;4981824;28;20203;-88
2022/09/14 02:58:51;;;;;;;4.75;2.78;;;18.90;99.90;;;;;;4986196;28;20228;-88
2022/09/14 03:01:21;;;;;;;3.13;2.75;;;18.90;99.90;;;;;;4999008;28;20191;-88
2022/09/14 03:03:47;;;;;;;4.78;2.65;;;18.90;99.90;;;;;;4985661;28;20183;-88
2022/09/14 03:06:14;;;;;;;4.03;2.90;;;19.00;99.90;;;;;;4996663;28;20183;-89
2022/09/14 03:08:40;;;;;;;5.55;2.97;;;18.90;99.90;;;;;;4998042;28;20238;-89
2022/09/14 03:11:06;;;;;;;5.70;3.03;;;18.90;99.90;;;;;;4996970;28;20275;-89
2022/09/14 03:13:36;;;;;;;4.60;2.90;;;19.00;99.90;;;;;;5000742;28;20182;-89
2022/09/14 03:16:10;;;;;;;5.43;3.10;;;19.00;99.90;;;;;;4999840;28;20199;-89
2022/09/14 03:18:37;;;;;;;3.42;2.85;;;18.90;99.90;;;;;;4989204;28;20198;-89
2022/09/14 03:21:13;;;;;;;5.50;3.47;;;18.90;99.90;;;;;;4996476;28;20273;-88
2022/09/14 03:23:45;;;;;;;8.90;4.25;;;18.90;99.90;;;;;;4997288;28;20317;-89
2022/09/14 03:26:14;;;;;;;4.50;3.38;;;18.90;99.90;;;;;;5003305;28;20183;-89
2022/09/14 03:28:40;;;;;;;5.93;3.53;;;18.90;99.90;;;;;;4999339;28;20210;-89
2022/09/14 03:31:08;;;;;;;5.03;3.28;;;18.90;99.90;;;;;;4985402;28;20239;-89
2022/09/14 03:33:34;;;;;;;5.82;3.53;;;19.00;99.90;;;;;;4998429;28;20179;-89
2022/09/14 03:36:09;;;;;;;4.20;3.30;;;19.00;99.90;;;;;;5005957;28;20199;-89
2022/09/14 03:38:35;;;;;;;5.55;3.03;;;19.00;99.90;;;;;;4997087;28;20186;-88
2022/09/14 03:41:14;;;;;;;3.33;3.03;;;19.00;99.90;;;;;;4998159;28;20187;-88
2022/09/14 03:43:45;;;;;;;7.07;3.60;;;19.00;99.90;;;;;;5018566;28;20178;-88
2022/09/14 03:46:17;;;;;;;4.15;3.15;;;19.00;99.90;;;;;;4999466;28;20189;-88
2022/09/14 03:48:48;;;;;;;4.80;3.75;;;18.90;99.90;;;;;;4994824;28;20276;-88
2022/09/14 03:51:36;;;;;;;5.25;3.30;;;18.90;99.90;;;;;;4995151;28;20187;-88
2022/09/14 03:54:02;;;;;;;5.30;3.38;;;18.80;99.90;;;;;;5006548;28;20223;-88
2022/09/14 03:56:28;;;;;;;5.15;3.45;;;18.70;99.90;;;;;;5011146;28;20182;-87
2022/09/14 03:58:54;;;;;;;4.90;3.53;;;18.70;99.90;;;;;;5015593;28;20179;-87
2022/09/14 04:01:21;;;;;;;6.95;4.00;;;18.70;99.90;;;;;;4999649;28;20186;-86
2022/09/14 04:03:49;;;;;;;6.32;3.70;;;18.60;99.90;;;;;;5006944;28;20199;-87
2022/09/14 04:06:17;;;;;;;4.97;3.58;;;18.60;99.90;;;;;;5011593;28;20236;-88
2022/09/14 04:08:45;;;;;;;7.30;4.15;;;18.60;99.90;;;;;;4993840;28;20203;-87
2022/09/14 04:11:16;;;;;;;6.22;3.53;;;18.60;99.90;;;;;;4997869;28;20273;-87
2022/09/14 04:13:43;;;;;;;4.93;3.85;;;18.60;99.90;;;;;;5000544;28;20185;-88
2022/09/14 04:16:09;;;;;;;3.75;3.35;;;18.50;99.90;;;;;;4989004;28;20179;-88
2022/09/14 04:18:35;;;;;;;4.57;3.40;;;18.50;99.90;;;;;;4997787;28;20183;-88
2022/09/14 04:21:09;;;;;;;4.70;3.80;;;18.50;99.90;;;;;;4996713;28;20187;-88
2022/09/14 04:23:35;;;;;;;4.75;3.15;;;18.50;99.90;;;;;;4997515;28;20179;-88
2022/09/14 04:26:08;;;;;;;5.63;3.55;;;18.50;99.90;;;;;;4981246;28;20206;-89
2022/09/14 04:28:34;;;;;;;3.70;3.40;;;18.50;99.90;;;;;;5010482;28;20207;-88
2022/09/14 04:31:01;;;;;;;4.45;4.03;;;18.50;99.90;;;;;;4985748;28;20191;-88
2022/09/14 04:33:33;;;;;;;3.80;3.38;;;18.50;99.90;;;;;;5000319;28;20177;-88
2022/09/14 04:36:07;;;;;;;4.85;3.33;;;18.60;99.90;;;;;;5000009;28;20201;-89
2022/09/14 04:38:37;;;;;;;6.97;3.65;;;18.60;99.90;;;;;;4999964;28;20174;-88
2022/09/14 04:41:09;;;;;;;4.97;3.75;;;18.60;99.90;;;;;;5015508;28;20182;-88
2022/09/14 04:43:35;;;;;;;6.28;4.00;;;18.60;99.90;;;;;;4998639;28;20269;-86
2022/09/14 04:46:06;;;;;;;5.55;4.25;;;18.60;99.90;;;;;;4999714;28;20191;-85
2022/09/14 04:48:35;;;;;;;4.78;4.38;;;18.50;99.90;;;;;;4999839;28;20202;-87
2022/09/14 04:51:12;;;;;;;5.75;4.45;;;18.50;99.90;;;;;;4999441;28;20166;-88
2022/09/14 04:53:40;;;;;;;8.55;4.40;;;18.50;99.90;;;;;;4995158;28;20256;-88
2022/09/14 04:56:08;;;;;;;8.25;4.22;;;18.60;99.90;;;;;;4994116;28;20242;-89
2022/09/14 04:58:38;;;;;;;4.88;4.28;;;18.60;99.90;;;;;;5007063;28;20261;-88
2022/09/14 05:01:11;;;;;;;5.50;4.28;;;18.60;99.90;;;;;;5000070;28;20183;-87
2022/09/14 05:03:38;;;;;;;6.03;3.97;;;18.60;99.90;;;;;;4998551;28;20189;-87
2022/09/14 05:06:13;;;;;;;6.00;4.20;;;18.60;99.90;;;;;;5016296;28;20706;-87
2022/09/14 05:08:39;;;;;;;4.88;4.38;;;18.60;99.90;;;;;;4998123;28;20198;-87
2022/09/14 05:11:06;;;;;;;6.88;4.68;;;18.70;99.90;;;;;;5000129;28;20628;-87
2022/09/14 05:13:33;;;;;;;7.97;4.45;;;18.70;99.90;;;;;;4998243;28;20166;-87
2022/09/14 05:16:13;;;;;;;7.82;4.28;;;18.60;99.90;;;;;;5016701;28;20294;-87
2022/09/14 05:18:39;;;;;;;4.95;3.92;;;18.60;99.90;;;;;;4997777;28;20183;-87
2022/09/14 05:21:07;;;;;;;6.22;4.10;;;18.60;99.90;;;;;;4999198;28;20194;-87
2022/09/14 05:23:34;;;;;;;4.85;4.10;;;18.60;99.90;;;;;;5005221;28;20179;-87
2022/09/14 05:26:00;;;;;;;6.47;4.70;;;18.60;99.90;;;;;;4996121;28;20207;-87
2022/09/14 05:28:26;;;;;;;4.60;3.97;;;18.60;99.90;;;;;;4997504;28;20673;-88
2022/09/14 05:30:53;;;;;;;6.25;4.93;;;18.60;99.90;;;;;;4996668;28;20199;-87
2022/09/14 05:33:19;;;;;;;5.57;4.70;;;18.60;99.90;;;;;;5003540;28;20189;-87
2022/09/14 05:35:46;;;;;;;6.07;4.20;;;18.60;99.90;;;;;;4996075;28;20195;-88
2022/09/14 05:38:12;;;;;;;7.20;5.13;;;18.60;99.90;;;;;;4994930;28;20188;-88
2022/09/14 05:40:38;;;;;;;6.53;4.43;;;18.60;99.90;;;;;;4995624;28;20182;-88
2022/09/14 05:43:04;;;;;;;5.07;4.38;;;18.50;99.90;;;;;;4997009;28;20183;-88
2022/09/14 05:45:30;;;;;;;5.68;4.53;;;18.50;99.90;;;;;;4995644;28;20206;-88
2022/09/14 05:48:00;;;;;;;6.88;4.57;;;18.60;99.90;;;;;;4996888;28;20206;-88
2022/09/14 05:50:27;;;;;;;7.38;4.25;;;18.70;99.90;;;;;;4996433;28;20222;-88
2022/09/14 05:52:54;;;;;;;4.95;4.30;;;18.70;99.90;;;;;;4993548;28;20179;-88
2022/09/14 05:55:19;;;;;;;4.88;4.30;;;18.70;99.90;;;;;;4994489;28;20206;-88
2022/09/14 05:57:49;;;;;;;6.30;4.57;;;18.80;99.90;;;;;;4997133;28;20178;-88
2022/09/14 06:00:16;;;;;;;4.20;3.80;;;18.80;99.90;;;;;;4993978;28;20190;-88
2022/09/14 06:02:47;;;;;;;5.63;4.05;;;18.90;99.90;;;;;;4994237;28;20187;-88
2022/09/14 06:05:12;;;;;;;4.78;4.30;;;19.00;99.90;;;;;;5002409;28;20206;-85
2022/09/14 06:07:38;;;;;;;5.32;4.30;;;19.00;99.90;;;;;;4994550;28;20198;-88
2022/09/14 06:10:05;;;;;;;6.25;4.15;;;19.10;99.90;;;;;;4998059;28;20178;-88
2022/09/14 06:12:31;;;;;;;5.45;4.28;;;19.10;99.90;;;;;;4998749;28;20181;-87
2022/09/14 06:15:12;;;;;;;4.15;3.80;;;19.20;99.90;;;;;;4995437;28;20188;-89
2022/09/14 06:17:40;;;;;;;4.70;4.05;;;19.30;99.90;;;;;;5021355;28;20190;-88
2022/09/14 06:20:17;;;;;;;4.93;4.00;;;19.30;99.90;;;;;;5013591;28;20205;-89
2022/09/14 06:22:44;;;;;;;3.90;3.55;;;19.40;99.90;;;;;;4997851;28;20174;-88
2022/09/14 06:25:10;;;;;;;4.10;3.67;;;19.40;99.90;;;;;;4996903;28;20214;-88
2022/09/14 06:27:36;;;;;;;5.28;3.55;;;19.50;99.90;;;;;;4995047;28;20175;-88
2022/09/14 06:30:03;;;;;;;3.88;3.47;;;19.50;99.90;;;;;;5002632;28;20175;-88
2022/09/14 06:32:30;;;;;;;4.00;3.60;;;19.50;99.90;;;;;;4978227;28;20194;-89
2022/09/14 06:34:56;;;;;;;4.10;3.58;;;19.50;99.90;;;;;;4993203;28;20225;-88
2022/09/14 06:37:22;;;;;;;5.00;3.70;;;19.60;99.90;;;;;;4994354;28;20211;-87
2022/09/14 06:39:48;;;;;;;4.82;3.72;;;19.60;99.90;;;;;;4985091;28;20182;-87
2022/09/14 06:42:13;;;;;;;5.35;4.05;;;19.70;99.90;;;;;;4995807;28;20213;-87
2022/09/14 06:44:39;;;;;;;4.47;3.70;;;19.70;99.90;;;;;;4994575;28;20203;-88
2022/09/14 06:47:06;;;;;;;4.18;3.47;;;19.70;99.90;;;;;;4994160;28;20175;-88
2022/09/14 06:49:32;;;;;;;5.32;3.72;;;19.70;99.90;;;;;;4996308;28;20210;-88
2022/09/14 06:51:59;;;;;;;4.00;3.20;;;19.80;99.90;;;;;;4996526;28;20185;-88
2022/09/14 06:54:26;;;;;;;5.57;3.50;;;19.90;99.90;;;;;;4992008;28;20254;-88
2022/09/14 06:56:52;;;;;;;4.00;3.60;;;19.90;99.90;;;;;;4976026;28;20636;-88
2022/09/14 06:59:18;;;;;;;4.70;4.25;;;19.90;99.90;;;;;;4976916;28;20206;-88
2022/09/14 07:01:45;;;;;;;5.10;4.45;;;20.00;99.90;;;;;;4992776;28;20183;-88
2022/09/14 07:04:11;;;;;;;6.85;3.85;;;20.00;99.90;;;;;;4976867;28;20226;-87
2022/09/14 07:06:43;;;;;;;8.25;3.92;;;20.00;99.90;;;;;;4976806;28;20184;-87
2022/09/14 07:09:09;;;;;;;6.80;3.85;;;20.00;99.90;;;;;;4976871;28;20211;-88
2022/09/14 07:11:35;;;;;;;5.43;3.05;;;20.10;99.90;;;;;;4976929;28;20187;-88
2022/09/14 07:14:01;;;;;;;4.80;3.50;;;20.20;99.90;;;;;;4976647;28;20271;-88
2022/09/14 07:16:29;;;;;;;4.90;3.28;;;20.30;99.90;;;;;;4976749;28;20193;-88
2022/09/14 07:19:00;;;;;;;4.63;4.25;;;20.30;99.90;;;;;;4996385;28;20214;-88
2022/09/14 07:21:27;;;;;;;5.65;4.30;;;20.40;99.90;;;;;;5000031;28;20269;-88
2022/09/14 07:23:54;;;;;;;6.15;4.38;;;20.40;99.90;;;;;;4999625;28;20183;-88
2022/09/14 07:26:26;;;;;;;5.43;4.07;;;20.40;99.90;;;;;;4999758;28;20651;-88
2022/09/14 07:29:04;;;;;;;6.85;4.35;;;20.30;99.90;;;;;;4999408;28;20210;-88
2022/09/14 07:31:42;;;;;;;5.07;4.03;;;20.20;99.90;;;;;;4999768;28;20212;-88
2022/09/14 07:34:08;;;;;;;4.38;3.35;;;20.30;99.90;;;;;;5016119;28;20194;-88
2022/09/14 07:36:35;;;;;;;4.70;3.53;;;20.40;99.90;;;;;;4999739;28;20218;-88
2022/09/14 07:39:04;;;;;;;3.95;3.60;;;20.50;99.90;;;;;;4999587;28;20182;-88
2022/09/14 07:41:32;;;;;;;4.07;3.65;;;20.50;99.90;;;;;;5015141;28;20218;-88
2022/09/14 07:44:00;;;;;;;6.50;3.83;;;20.70;99.90;;;;;;4999368;28;20179;-88
2022/09/14 07:46:32;;;;;;;3.95;3.33;;;20.80;99.90;;;;;;5016331;28;20187;-88
2022/09/14 07:49:00;;;;;;;4.28;3.42;;;21.00;99.90;;;;;;5016011;28;20210;-88
2022/09/14 07:51:28;;;;;;;4.82;3.00;;;21.20;99.90;;;;;;4999969;28;20210;-88
2022/09/14 07:53:54;;;;;;;3.92;3.50;;;21.30;99.90;;;;;;4999757;28;20181;-88
2022/09/14 07:56:20;;;;;;;5.13;3.00;;;21.40;99.90;;;;;;5000197;28;20205;-88
2022/09/14 07:58:47;;;;;;;5.35;3.40;;;21.50;99.90;;;;;;4999892;28;20197;-88
2022/09/14 08:01:18;;;;;;;4.00;2.88;;;21.60;99.90;;;;;;5000102;28;20218;-88
2022/09/14 08:03:45;;;;;;;8.65;3.60;;;21.70;99.90;;;;;;5033863;28;20273;-88
2022/09/14 08:06:14;;;;;;;4.68;2.75;;;21.80;99.90;;;;;;5016405;28;20233;-88
2022/09/14 08:08:43;;;;;;;4.60;3.17;;;21.80;99.90;;;;;;5015384;28;20210;-88
2022/09/14 08:11:11;;;;;;;4.85;3.20;;;22.00;99.90;;;;;;5015485;28;20178;-88
2022/09/14 08:14:05;;;;;;;5.18;3.30;;;22.10;99.90;;;;;;5015106;28;20713;-88
2022/09/14 08:16:33;;;;;;;5.10;3.17;;;22.20;99.90;;;;;;5014382;28;20182;-88
2022/09/14 08:19:03;;;;;;;4.57;3.15;;;22.30;99.90;;;;;;5032858;28;20210;-88
2022/09/14 08:21:31;;;;;;;5.22;2.70;;;22.40;99.90;;;;;;5015060;28;20183;-88
2022/09/14 08:23:57;;;;;;;3.70;2.97;;;22.40;99.90;;;;;;5014976;28;20249;-88
2022/09/14 08:26:25;;;;;;;5.35;3.03;;;22.60;99.90;;;;;;5014993;28;20647;-88
2022/09/14 08:28:53;;;;;;;2.75;2.55;;;22.70;99.90;;;;;;5014646;28;20234;-84
2022/09/14 08:31:21;;;;;;;3.13;2.63;;;22.80;99.90;;;;;;4999305;28;20282;-88
2022/09/14 08:33:59;;;;;;;3.17;2.40;;;22.90;99.90;;;;;;5005772;28;20238;-88
2022/09/14 08:36:33;;;;;;;4.45;2.88;;;22.90;99.90;;;;;;5014323;28;20179;-87
2022/09/14 08:39:00;;;;;;;2.67;2.47;;;22.70;99.90;;;;;;5002674;28;20194;-88
2022/09/14 08:41:45;;;;;;;6.07;2.80;;;22.70;99.90;;;;;;5011711;28;20182;-88
2022/09/14 08:44:36;;;;;;;6.70;2.67;;;22.90;99.90;;;;;;5001119;28;20214;-88
2022/09/14 08:47:23;;;;;;;5.60;3.10;;;23.10;99.90;;;;;;4998869;28;20190;-88
2022/09/14 08:50:04;;;;;;;2.97;2.60;;;23.30;99.90;;;;;;5015066;28;20206;-87
2022/09/14 08:52:35;;;;;;;4.32;2.67;;;23.60;99.90;;;;;;5014026;28;20241;-88
2022/09/14 08:55:30;;;;;;;3.92;2.67;;;23.70;99.90;;;;;;5014145;28;20293;-88
2022/09/14 08:58:15;;;;;;;5.00;2.65;;;23.70;99.90;;;;;;5014203;28;20288;-88
2022/09/14 09:00:57;;;;;;;2.90;2.30;;;23.50;99.90;;;;;;5013887;28;20217;-88
2022/09/14 09:03:42;;;;;;;4.10;2.90;;;23.40;99.90;;;;;;5014569;28;20178;-87
2022/09/14 09:06:37;;;;;;;4.25;2.55;;;23.40;99.90;;;;;;5014512;28;20281;-88
2022/09/14 09:09:40;;;;;;;5.82;2.95;;;23.20;99.90;;;;;;5012011;28;20206;-88
2022/09/14 09:12:32;;;;;;;2.97;2.28;;;23.30;99.90;;;;;;5003900;28;20336;-87
2022/09/14 09:15:00;;;;;;;3.92;2.58;;;23.30;99.90;;;;;;4997648;28;20706;-87
2022/09/14 09:17:41;;;;;;;4.07;2.70;;;23.40;99.90;;;;;;5024124;28;20191;-89
2022/09/14 09:20:19;;;;;;;3.90;2.53;;;23.40;99.90;;;;;;5009310;28;20186;-88
2022/09/14 09:23:06;;;;;;;2.97;2.60;;;23.40;99.90;;;;;;5011892;28;20171;-88
2022/09/14 09:25:54;;;;;;;5.80;2.63;;;23.50;99.90;;;;;;5015896;28;20194;-81
2022/09/14 09:28:30;;;;;;;4.10;2.70;;;23.70;99.90;;;;;;5017512;28;20226;-83
2022/09/14 09:31:06;;;;;;;4.35;3.10;;;23.80;99.90;;;;;;5016894;28;20190;-88
2022/09/14 09:33:55;;;;;;;3.75;2.60;;;23.80;99.90;;;;;;5017610;28;20206;-88
2022/09/14 09:36:35;;;;;;;3.88;2.60;;;24.00;99.90;;;;;;5014124;28;20266;-88
2022/09/14 09:39:02;;;;;;;3.00;2.70;;;24.30;99.90;;;;;;4993784;28;20199;-88
2022/09/14 09:41:34;;;;;;;4.60;2.85;;;24.40;99.90;;;;;;4999923;28;20175;-88
2022/09/14 09:44:08;;;;;;;3.75;2.53;;;24.40;99.90;;;;;;5007916;28;20226;-88
2022/09/14 09:46:37;;;;;;;5.95;2.75;;;24.50;99.90;;;;;;5002571;28;20232;-88
2022/09/14 09:49:17;;;;;;;3.28;2.67;;;24.50;99.90;;;;;;4997223;28;20233;-88
2022/09/14 09:51:56;;;;;;;4.40;2.53;;;24.70;99.90;;;;;;5015318;28;20273;-88
2022/09/14 09:54:27;;;;;;;2.95;2.13;;;24.90;99.90;;;;;;5013285;28;20225;-88
2022/09/14 09:57:00;;;;;;;4.78;2.15;;;25.00;99.90;;;;;;5011943;28;20179;-88
2022/09/14 09:59:35;;;;;;;3.65;2.10;;;25.00;99.90;;;;;;4978119;28;20190;-87
2022/09/14 10:02:20;;;;;;;5.38;2.80;;;25.10;99.90;;;;;;5009113;28;20623;-87
2022/09/14 10:05:10;;;;;;;4.88;2.08;;;25.30;99.90;;;;;;4997240;28;20260;-87
2022/09/14 10:07:48;;;;;;;5.55;2.30;;;25.40;99.90;;;;;;4996534;28;20210;-88
2022/09/14 10:10:17;;;;;;;3.17;1.90;;;25.40;99.90;;;;;;4996898;28;20619;-88
2022/09/14 10:12:54;;;;;;;6.65;2.28;;;25.40;99.90;;;;;;4984403;28;20210;-88
2022/09/14 10:15:32;;;;;;;5.47;2.00;;;25.50;99.90;;;;;;4979140;28;20202;-87
2022/09/14 10:18:10;;;;;;;4.15;2.05;;;25.50;99.90;;;;;;5003103;28;20185;-87
2022/09/14 10:20:50;;;;;;;4.13;2.35;;;25.50;99.90;;;;;;4997058;28;20237;-88
2022/09/14 10:23:19;;;;;;;4.80;2.13;;;25.50;99.90;;;;;;4980040;28;20179;-88
2022/09/14 10:25:47;;;;;;;3.40;2.20;;;25.60;99.90;;;;;;4996431;28;20202;-88
2022/09/14 10:28:32;;;;;;;3.90;2.22;;;25.50;99.90;;;;;;4992857;28;20214;-88
2022/09/14 10:31:07;;;;;;;3.83;2.08;;;25.50;99.90;;;;;;4993607;28;20197;-88
2022/09/14 10:33:36;;;;;;;2.65;1.98;;;25.50;99.90;;;;;;4998314;28;20681;-88
2022/09/14 10:36:13;;;;;;;3.65;2.03;;;25.50;99.90;;;;;;5006078;28;20191;-88
2022/09/14 10:38:57;;;;;;;3.40;1.77;;;25.50;99.90;;;;;;5000557;28;20188;-88
2022/09/14 10:41:44;;;;;;;6.55;2.03;;;25.50;99.90;;;;;;5009562;28;20249;-88
2022/09/14 10:44:44;;;;;;;4.13;2.00;;;25.40;99.90;;;;;;5015178;28;20253;-88
2022/09/14 10:47:20;;;;;;;3.83;2.03;;;25.50;99.90;;;;;;4998202;28;20183;-88
2022/09/14 10:50:11;;;;;;;3.70;2.25;;;25.60;99.90;;;;;;5013167;28;20206;-88
2022/09/14 10:53:14;;;;;;;3.40;1.67;;;25.70;99.90;;;;;;4991603;28;20182;-88
2022/09/14 10:56:09;;;;;;;5.22;1.90;;;25.80;99.90;;;;;;5031437;28;20194;-88
2022/09/14 10:58:53;;;;;;;5.70;1.83;;;25.90;99.90;;;;;;4992131;28;20198;-88
2022/09/14 11:01:43;;;;;;;3.15;2.05;;;26.00;99.90;;;;;;5002237;28;20179;-88
2022/09/14 11:07:31;;;;;;;3.75;2.03;;;26.00;99.90;;;;;;5004228;28;20214;-88
2022/09/14 11:10:07;;;;;;;2.13;1.85;;;25.90;99.90;;;;;;5002304;28;20206;-88
2022/09/14 11:13:11;;;;;;;2.35;1.80;;;25.80;99.90;;;;;;4996182;28;20265;-88
2022/09/14 11:16:00;;;;;;;3.45;2.25;;;25.70;99.90;;;;;;4977312;28;20302;-88
2022/09/14 11:18:56;;;;;;;3.17;1.85;;;25.50;99.90;;;;;;5000965;28;20243;-88
2022/09/14 11:21:43;;;;;;;2.95;2.10;;;25.40;99.90;;;;;;5001626;28;20184;-88
2022/09/14 11:24:34;;;;;;;4.60;2.10;;;25.40;99.90;;;;;;5002378;28;20198;-88
2022/09/14 11:27:22;;;;;;;4.07;2.10;;;25.30;99.90;;;;;;5006821;28;20177;-88
2022/09/14 11:29:56;;;;;;;3.55;1.85;;;25.20;99.90;;;;;;5004732;28;20203;-88
2022/09/14 11:32:33;;;;;;;2.78;1.90;;;25.20;99.90;;;;;;5001804;28;20197;-88
2022/09/14 11:35:24;;;;;;;3.03;2.00;;;25.10;99.90;;;;;;4984817;28;20754;-88
2022/09/14 11:37:59;;;;;;;3.22;2.00;;;25.10;99.90;;;;;;4998329;28;20176;-88
2022/09/14 11:40:28;;;;;;;3.33;2.13;;;25.10;99.90;;;;;;5012681;28;20170;-88
2022/09/14 11:43:03;;;;;;;6.00;2.20;;;25.20;99.90;;;;;;4998948;28;20263;-88
2022/09/14 11:45:35;;;;;;;4.22;2.20;;;25.20;99.90;;;;;;4997889;28;20186;-88
2022/09/14 11:48:20;;;;;;;7.75;2.03;;;25.20;99.90;;;;;;5015866;28;20206;-88
2022/09/14 11:50:50;;;;;;;3.70;1.90;;;25.20;99.90;;;;;;4995345;28;20194;-88
2022/09/14 11:53:18;;;;;;;2.50;1.80;;;25.20;99.90;;;;;;4994477;28;20178;-88
2022/09/14 11:55:49;;;;;;;3.92;1.95;;;25.10;99.90;;;;;;4999269;28;20191;-88
2022/09/14 11:58:29;;;;;;;2.10;1.58;;;25.10;99.90;;;;;;5000434;28;20179;-88
2022/09/14 12:01:24;;;;;;;4.65;1.90;;;25.00;99.90;;;;;;5001392;28;20175;-88
2022/09/14 12:04:04;;;;;;;4.72;1.88;;;25.00;99.90;;;;;;5014668;28;20182;-88
2022/09/14 12:06:30;;;;;;;4.15;1.77;;;25.00;99.90;;;;;;4995927;28;20190;-89
2022/09/14 12:09:21;;;;;;;3.38;2.30;;;24.90;99.90;;;;;;4995899;28;20210;-89
2022/09/14 12:11:49;;;;;;;4.22;2.40;;;24.90;99.90;;;;;;5014703;28;20182;-88
2022/09/14 12:14:28;;;;;;;5.97;2.58;;;24.50;99.90;;;;;;5006981;28;20238;-88
2022/09/14 12:17:15;;;;;;;6.57;2.55;;;24.20;99.90;;;;;;5004720;28;20173;-88
2022/09/14 12:19:43;;;;;;;6.95;2.80;;;23.80;99.90;;;;;;4994621;28;20190;-88
2022/09/14 12:22:27;;;;;;;6.60;2.90;;;23.60;99.90;;;;;;4990242;28;20647;-88
2022/09/14 12:25:08;;;;;;;9.48;2.60;;;23.50;99.90;;;;;;4992174;28;20285;-88
2022/09/14 12:27:39;;;;;;;4.32;2.92;;;23.30;99.90;;;;;;4992729;28;20175;-88
2022/09/14 12:30:34;;;;;;;6.57;3.28;;;23.00;99.90;;;;;;4997726;28;20183;-87
2022/09/14 12:33:01;;;;;;;3.70;2.00;;;22.90;99.90;;;;;;5014706;28;20179;-87
2022/09/14 12:35:44;;;;;;;7.20;2.53;;;22.80;99.90;;;;;;4998725;28;20206;-88
2022/09/14 12:38:28;;;;;;;4.32;2.70;;;22.60;99.90;;;;;;4998048;28;20187;-88
2022/09/14 12:41:00;;;;;;;3.83;2.60;;;22.60;99.90;;;;;;5014202;28;20186;-88
2022/09/14 12:43:32;;;;;;;5.05;2.30;;;22.50;99.90;;;;;;4998077;28;20274;-88
2022/09/14 12:46:07;;;;;;;3.22;2.40;;;22.50;99.90;;;;;;4997980;28;20257;-88
2022/09/14 12:48:47;;;;;;;3.53;2.15;;;22.50;99.90;;;;;;4994703;28;20222;-88
2022/09/14 12:51:25;;;;;;;3.83;1.98;;;22.40;99.90;;;;;;5014399;28;20182;-88
2022/09/14 12:54:08;;;;;;;3.45;1.90;;;22.30;99.90;;;;;;5031880;28;20186;-87
2022/09/14 12:57:12;;;;;;;3.25;1.65;;;22.20;99.90;;;;;;4997991;28;20231;-87
2022/09/14 12:59:59;;;;;;;4.50;1.75;;;22.00;99.90;;;;;;4998050;28;20182;-87
2022/09/14 13:02:46;;;;;;;4.18;1.85;;;21.90;99.90;;;;;;4994404;28;20233;-87
2022/09/14 13:05:18;;;;;;;3.53;1.73;;;21.70;99.90;;;;;;4978397;28;20218;-87
2022/09/14 13:07:45;;;;;;;4.80;1.73;;;21.60;99.90;;;;;;4994101;28;20194;-88
2022/09/14 13:10:39;;;;;;;5.47;1.50;;;21.50;99.90;;;;;;5008161;28;20289;-87
2022/09/14 13:13:17;;;;;;;3.08;1.50;;;21.40;99.90;;;;;;4982173;28;20206;-87
2022/09/14 13:16:04;;;;;;;1.85;1.60;;;21.30;99.90;;;;;;4996824;28;20729;-87
2022/09/14 13:18:37;;;;;;;3.22;1.38;;;21.20;99.90;;;;;;4997587;28;20190;-88
2022/09/14 13:21:20;;;;;;;6.18;1.50;;;21.10;99.90;;;;;;4997464;28;20182;-88
2022/09/14 13:23:46;;;;;;;3.17;1.77;;;21.20;99.90;;;;;;4997469;28;20178;-88
2022/09/14 13:26:20;;;;;;;3.88;1.40;;;21.20;99.90;;;;;;4997328;28;20261;-88